Time;durP1;ratioP1;P1;durP2;ratioP2;P2;SDS_P1;SDS_P2;PMS_P1;PMS_P2;Temp;Humidity;BMP_temperature;BMP_pressure;BME280_temperature;BME280_humidity;BME280_pressure;Samples;Min_cycle;Max_cycle;Signal;HPM_P1;HPM_P2
2023/04/28 00:00:14;;;;;;;18.60;7.30;;;;;;;;;;4922049;28;20034;-69
2023/04/28 00:02:39;;;;;;;16.05;7.38;;;;;;;;;;4939902;28;20044;-69
2023/04/28 00:05:08;;;;;;;21.83;8.17;;;;;;;;;;4937472;28;20035;-70
2023/04/28 00:07:33;;;;;;;14.82;7.95;;;;;;;;;;4930545;28;20294;-69
2023/04/28 00:09:58;;;;;;;15.45;7.00;;;;;;;;;;4938192;28;20035;-69
2023/04/28 00:12:24;;;;;;;16.10;7.40;;;;;;;;;;4927405;29;20102;-71
2023/04/28 00:14:49;;;;;;;14.20;7.03;;;;;;;;;;4940819;28;20295;-70
2023/04/28 00:17:14;;;;;;;18.33;7.47;;;;;;;;;;4927062;29;21078;-71
2023/04/28 00:19:40;;;;;;;15.00;7.20;;;;;;;;;;4942091;28;20393;-69
2023/04/28 00:22:05;;;;;;;15.13;6.95;;;;;;;;;;4933150;28;20078;-70
2023/04/28 00:24:32;;;;;;;16.08;7.10;;;;;;;;;;4939816;28;20405;-70
2023/04/28 00:26:57;;;;;;;14.70;7.50;;;;;;;;;;4938755;28;20023;-70
2023/04/28 00:29:23;;;;;;;17.17;8.00;;;;;;;;;;4941307;28;20047;-70
2023/04/28 00:31:48;;;;;;;11.75;7.15;;;;;;;;;;4925612;28;20455;-70
2023/04/28 00:34:14;;;;;;;17.47;7.70;;;;;;;;;;4926391;28;20089;-68
2023/04/28 00:36:39;;;;;;;13.55;7.10;;;;;;;;;;4941357;28;20285;-68
2023/04/28 00:39:04;;;;;;;14.05;7.72;;;;;;;;;;4939983;28;20410;-70
2023/04/28 00:41:30;;;;;;;16.40;7.35;;;;;;;;;;4930076;28;20409;-70
2023/04/28 00:43:55;;;;;;;18.80;7.00;;;;;;;;;;4929351;28;20027;-69
2023/04/28 00:46:23;;;;;;;17.33;8.65;;;;;;;;;;4939477;28;20478;-70
2023/04/28 00:48:49;;;;;;;21.38;11.07;;;;;;;;;;4928918;28;20038;-72
2023/04/28 00:51:14;;;;;;;18.90;10.82;;;;;;;;;;4941900;28;20027;-70
2023/04/28 00:53:40;;;;;;;18.85;9.98;;;;;;;;;;4932198;29;20039;-69
2023/04/28 00:56:06;;;;;;;17.90;10.23;;;;;;;;;;4937970;28;20118;-70
2023/04/28 00:58:33;;;;;;;24.85;10.88;;;;;;;;;;4924279;29;20126;-69
2023/04/28 01:01:02;;;;;;;20.85;10.02;;;;;;;;;;4936740;28;20486;-70
2023/04/28 01:03:28;;;;;;;21.38;10.63;;;;;;;;;;4923114;29;20035;-70
2023/04/28 01:05:53;;;;;;;19.17;10.43;;;;;;;;;;4937664;28;20039;-71
2023/04/28 01:08:22;;;;;;;18.47;11.07;;;;;;;;;;4942137;28;20472;-70
2023/04/28 01:10:48;;;;;;;;;;;;;;;;;;4938870;28;20369;-70
2023/04/28 01:13:13;;;;;;;21.88;11.75;;;;;;;;;;4942909;28;20031;-71
2023/04/28 01:15:38;;;;;;;21.47;10.83;;;;;;;;;;4937292;28;20062;-70
2023/04/28 01:18:03;;;;;;;22.90;11.93;;;;;;;;;;4943882;28;20059;-67
2023/04/28 01:20:28;;;;;;;19.60;10.35;;;;;;;;;;4930586;29;20071;-70
2023/04/28 01:22:54;;;;;;;20.17;10.38;;;;;;;;;;4927772;28;20035;-69
2023/04/28 01:25:19;;;;;;;26.90;10.50;;;;;;;;;;4938353;28;20066;-70
2023/04/28 01:27:44;;;;;;;19.67;10.70;;;;;;;;;;4934882;28;20039;-69
2023/04/28 01:30:10;;;;;;;17.08;9.80;;;;;;;;;;4920205;29;20285;-72
2023/04/28 01:32:35;;;;;;;20.85;10.85;;;;;;;;;;4934704;28;20709;-70
2023/04/28 01:35:01;;;;;;;18.38;10.02;;;;;;;;;;4925950;29;20040;-70
2023/04/28 01:37:26;;;;;;;17.10;9.93;;;;;;;;;;4922913;29;20522;-69
2023/04/28 01:39:51;;;;;;;14.77;8.80;;;;;;;;;;4920164;29;20019;-69
2023/04/28 01:42:16;;;;;;;16.87;8.77;;;;;;;;;;4924364;29;20031;-69
2023/04/28 01:44:42;;;;;;;14.87;8.50;;;;;;;;;;4920545;29;20289;-71
2023/04/28 01:47:07;;;;;;;16.50;8.50;;;;;;;;;;4920258;29;20300;-69
2023/04/28 01:49:32;;;;;;;17.08;8.65;;;;;;;;;;4935384;28;20055;-71
2023/04/28 01:51:57;;;;;;;18.50;9.63;;;;;;;;;;4923907;29;20035;-70
2023/04/28 01:54:23;;;;;;;14.27;8.53;;;;;;;;;;4922358;29;20282;-70
2023/04/28 01:56:48;;;;;;;14.30;8.60;;;;;;;;;;4922887;29;20031;-69
2023/04/28 01:59:13;;;;;;;14.98;8.82;;;;;;;;;;4921874;29;20035;-71
2023/04/28 02:01:39;;;;;;;13.83;8.60;;;;;;;;;;4917491;29;20030;-69
2023/04/28 02:04:04;;;;;;;17.17;9.15;;;;;;;;;;4935549;28;20645;-70
2023/04/28 02:06:29;;;;;;;18.47;8.87;;;;;;;;;;4921501;29;20031;-68
2023/04/28 02:08:54;;;;;;;14.80;9.35;;;;;;;;;;4920564;29;20926;-70
2023/04/28 02:11:20;;;;;;;17.10;8.70;;;;;;;;;;4933875;28;20032;-69
2023/04/28 02:13:45;;;;;;;17.03;9.53;;;;;;;;;;4934228;28;20109;-71
2023/04/28 02:16:11;;;;;;;19.05;9.40;;;;;;;;;;4920015;29;20283;-69
2023/04/28 02:18:36;;;;;;;14.68;9.25;;;;;;;;;;4920655;29;20032;-70
2023/04/28 02:21:11;;;;;;;15.82;9.15;;;;;;;;;;4919846;29;20983;-70
2023/04/28 02:23:36;;;;;;;18.35;9.43;;;;;;;3.39;nan;101154.47;4926457;29;20178;-70
2023/04/28 02:26:02;;;;;;;22.45;9.73;;;;;;;3.35;nan;101159.22;4918306;29;20496;-69
2023/04/28 02:28:30;;;;;;;18.30;9.35;;;;;;;3.32;nan;101153.47;4928046;28;20062;-71
2023/04/28 02:31:06;;;;;;;16.00;9.77;;;;;;;;;;4942245;28;20031;-69
2023/04/28 02:33:32;;;;;;;16.20;9.38;;;;;;;;;;4941558;28;20053;-70
2023/04/28 02:35:58;;;;;;;17.50;9.60;;;;;;;;;;4939734;28;20028;-70
2023/04/28 02:38:23;;;;;;;16.60;9.23;;;;;;;;;;4938054;28;20026;-71
2023/04/28 02:40:56;;;;;;;19.50;10.13;;;;;;;;;;4922202;29;21039;-70
2023/04/28 02:43:21;;;;;;;14.82;9.40;;;;;;;;;;4927453;29;20281;-70
2023/04/28 02:45:46;;;;;;;17.33;9.98;;;;;;;;;;4924515;28;20394;-70
2023/04/28 02:48:12;;;;;;;18.15;10.10;;;;;;;;;;4928921;28;20541;-70
2023/04/28 02:50:37;;;;;;;15.77;9.40;;;;;;;;;;4936684;28;20627;-68
2023/04/28 02:53:02;;;;;;;18.87;9.83;;;;;;;;;;4928125;28;20038;-70
2023/04/28 02:55:28;;;;;;;18.40;9.87;;;;;;;;;;4929240;28;20301;-69
2023/04/28 02:57:53;;;;;;;16.65;9.48;;;;;;;;;;4926597;28;20684;-70
2023/04/28 03:00:18;;;;;;;16.90;9.60;;;;;;;;;;4924126;28;20359;-71
2023/04/28 03:02:43;;;;;;;17.95;9.48;;;;;;;;;;4931066;28;20341;-68
2023/04/28 03:05:09;;;;;;;14.53;9.43;;;;;;;;;;4938549;28;20398;-69
2023/04/28 03:07:34;;;;;;;16.80;10.15;;;;;;;;;;4938879;28;20293;-71
2023/04/28 03:09:59;;;;;;;18.75;9.77;;;;;;;;;;4937581;28;20055;-70
2023/04/28 03:12:25;;;;;;;19.77;10.20;;;;;;;;;;4939375;28;20038;-71
2023/04/28 03:14:50;;;;;;;17.37;10.07;;;;;;;;;;4935019;28;20286;-70
2023/04/28 03:17:15;;;;;;;18.37;9.67;;;;;;;;;;4927697;29;20316;-72
2023/04/28 03:19:43;;;;;;;19.83;9.68;;;;;;;;;;4936986;28;20039;-70
2023/04/28 03:22:08;;;;;;;17.85;9.85;;;;;;;;;;4936473;28;20367;-69
2023/04/28 03:24:33;;;;;;;17.67;9.60;;;;;;;;;;4934012;28;20035;-71
2023/04/28 03:26:59;;;;;;;21.07;10.50;;;;;;;;;;4935137;28;20042;-71
2023/04/28 03:29:24;;;;;;;17.10;9.13;;;;;;;;;;4937567;28;20357;-71
2023/04/28 03:31:49;;;;;;;28.60;10.15;;;;;;;;;;4935770;28;20324;-71
2023/04/28 03:34:15;;;;;;;20.83;10.25;;;;;;;;;;4937697;28;20031;-71
2023/04/28 03:36:40;;;;;;;19.85;10.63;;;;;;;;;;4941977;28;20035;-70
2023/04/28 03:39:06;;;;;;;22.15;9.63;;;;;;;;;;4938584;28;20078;-71
2023/04/28 03:41:31;;;;;;;21.17;10.05;;;;;;;;;;4924456;29;20509;-70
2023/04/28 03:43:57;;;;;;;16.63;9.88;;;;;;;;;;4937487;28;20485;-72
2023/04/28 03:46:22;;;;;;;23.95;9.63;;;;;;;;;;4937041;28;20489;-72
2023/04/28 03:48:48;;;;;;;17.30;9.40;;;;;;;;;;4936680;28;20042;-70
2023/04/28 03:51:13;;;;;;;20.83;9.18;;;;;;;;;;4937710;28;20035;-71
2023/04/28 03:53:38;;;;;;;18.05;8.77;;;;;;;;;;4928581;28;20024;-70
2023/04/28 03:56:04;;;;;;;23.13;9.27;;;;;;;;;;4939012;28;20102;-72
2023/04/28 03:58:29;;;;;;;17.25;9.25;;;;;;;;;;4939963;28;20020;-72
2023/04/28 04:00:54;;;;;;;17.07;8.83;;;;;;;;;;4937368;28;20035;-71
2023/04/28 04:03:20;;;;;;;16.97;8.93;;;;;;;;;;4936545;28;20286;-71
2023/04/28 04:05:46;;;;;;;19.35;8.70;;;;;;;;;;4933129;28;20058;-73
2023/04/28 04:08:11;;;;;;;18.33;9.60;;;;;;;;;;4936359;28;20035;-69
2023/04/28 04:10:36;;;;;;;16.33;9.82;;;;;;;;;;4939053;28;20031;-71
2023/04/28 04:13:01;;;;;;;25.92;9.23;;;;;;;;;;4924858;29;20529;-70
2023/04/28 04:15:27;;;;;;;16.38;8.80;;;;;;;;;;4937636;28;20110;-70
2023/04/28 04:17:52;;;;;;;20.87;8.97;;;;;;;;;;4938143;28;20042;-71
2023/04/28 04:20:17;;;;;;;22.80;9.10;;;;;;;;;;4929376;28;20289;-73
2023/04/28 04:22:43;;;;;;;29.15;9.93;;;;;;;;;;4938624;28;20384;-73
2023/04/28 04:25:08;;;;;;;19.77;10.07;;;;;;;;;;4940314;28;20059;-71
2023/04/28 04:27:33;;;;;;;22.30;9.98;;;;;;;;;;4933437;28;20034;-73
2023/04/28 04:29:58;;;;;;;20.43;9.87;;;;;;;;;;4939097;28;20097;-72
2023/04/28 04:32:24;;;;;;;18.40;9.97;;;;;;;;;;4940554;28;20281;-72
2023/04/28 04:34:49;;;;;;;22.33;8.83;;;;;;;;;;4941736;28;20998;-74
2023/04/28 04:37:14;;;;;;;19.87;9.17;;;;;;;;;;4938211;28;20274;-73
2023/04/28 04:39:39;;;;;;;23.90;9.57;;;;;;;;;;4938586;28;20818;-73
2023/04/28 04:42:05;;;;;;;22.90;9.30;;;;;;;;;;4936763;28;20278;-74
2023/04/28 04:44:30;;;;;;;16.50;9.07;;;;;;;;;;4941935;28;20058;-74
2023/04/28 04:46:55;;;;;;;16.80;8.67;;;;;;;;;;4942101;28;20476;-73
2023/04/28 04:49:20;;;;;;;23.35;9.40;;;;;;;;;;4925606;29;20290;-74
2023/04/28 04:51:46;;;;;;;335.83;92.13;;;;;;;;;;4942721;28;20390;-73
2023/04/28 04:54:11;;;;;;;32.75;15.82;;;;;;;;;;4942265;28;20035;-73
2023/04/28 04:56:36;;;;;;;27.60;13.70;;;;;;;;;;4938653;28;20525;-75
2023/04/28 04:59:02;;;;;;;18.17;10.43;;;;;;;;;;4940366;28;20032;-72
2023/04/28 05:01:27;;;;;;;16.77;9.52;;;;;;;;;;4942627;28;20371;-73
2023/04/28 05:03:52;;;;;;;19.33;9.13;;;;;;;;;;4940001;28;20175;-72
2023/04/28 05:06:18;;;;;;;14.33;8.37;;;;;;;;;;4941964;28;20286;-74
2023/04/28 05:08:43;;;;;;;13.60;7.87;;;;;;;;;;4943084;28;20768;-72
2023/04/28 05:11:08;;;;;;;14.00;8.10;;;;;;;;;;4940618;28;20292;-74
2023/04/28 05:13:33;;;;;;;15.17;7.47;;;;;;;;;;4923996;28;20031;-75
2023/04/28 05:15:59;;;;;;;11.90;6.33;;;;;;;;;;4937286;28;20278;-73
2023/04/28 05:18:24;;;;;;;15.35;7.00;;;;;;;4.55;nan;101252.63;4939985;28;20031;-73
2023/04/28 05:20:49;;;;;;;21.38;7.18;;;;;;;4.63;nan;101255.25;4936741;28;20831;-74
2023/04/28 05:23:15;;;;;;;13.68;6.65;;;;;;;4.75;nan;101253.91;4925138;28;20059;-72
2023/04/28 05:25:41;;;;;;;14.73;7.18;;;;;;;4.76;nan;101252.94;4937542;28;20123;-74
2023/04/28 05:28:09;;;;;;;17.67;6.90;;;;;;;4.83;nan;101246.06;4939180;28;20255;-73
2023/04/28 05:30:34;;;;;;;13.18;7.68;;;;;;;;;;4937774;28;20030;-71
2023/04/28 05:33:00;;;;;;;14.05;7.25;;;;;;;;;;4936108;28;20043;-73
2023/04/28 05:35:25;;;;;;;14.10;8.33;;;;;;;;;;4926324;28;20430;-73
2023/04/28 05:37:51;;;;;;;16.90;8.50;;;;;;;;;;4937117;28;20408;-73
2023/04/28 05:40:16;;;;;;;14.32;7.53;;;;;;;;;;4942972;28;20027;-73
2023/04/28 05:42:41;;;;;;;19.37;7.10;;;;;;;;;;4939157;28;20039;-74
2023/04/28 05:45:07;;;;;;;13.80;6.47;;;;;;;;;;4943954;28;20035;-74
2023/04/28 05:47:32;;;;;;;12.65;7.15;;;;;;;;;;4935920;28;20879;-75
2023/04/28 05:49:57;;;;;;;13.18;6.82;;;;;;;;;;4938056;28;20019;-73
2023/04/28 05:52:22;;;;;;;14.47;6.97;;;;;;;;;;4940280;28;20030;-74
2023/04/28 05:54:48;;;;;;;17.75;6.32;;;;;;;;;;4939948;28;20035;-74
2023/04/28 05:57:13;;;;;;;12.80;7.23;;;;;;;;;;4940614;28;20406;-74
2023/04/28 05:59:39;;;;;;;10.98;6.70;;;;;;;;;;4926325;28;20340;-74
2023/04/28 06:02:04;;;;;;;14.27;7.00;;;;;;;;;;4938520;28;20031;-75
2023/04/28 06:04:29;;;;;;;14.13;6.80;;;;;;;;;;4940155;28;20277;-73
2023/04/28 06:06:55;;;;;;;16.33;6.80;;;;;;;;;;4941319;28;20306;-74
2023/04/28 06:09:20;;;;;;;12.23;6.10;;;;;;;;;;4937823;28;20597;-74
2023/04/28 06:11:45;;;;;;;14.20;6.55;;;;;;;;;;4938767;28;20039;-74
2023/04/28 06:14:10;;;;;;;19.48;7.88;;;;;;;;;;4942070;28;20022;-76
2023/04/28 06:16:36;;;;;;;14.80;6.67;;;;;;;;;;4938392;28;20035;-74
2023/04/28 06:19:01;;;;;;;11.07;6.77;;;;;;;;;;4929327;28;20058;-76
2023/04/28 06:21:28;;;;;;;21.77;7.20;;;;;;;;;;4936972;28;20035;-74
2023/04/28 06:23:53;;;;;;;20.70;7.50;;;;;;;;;;4925935;28;20291;-75
2023/04/28 06:26:18;;;;;;;22.80;7.60;;;;;;;;;;4931024;28;20450;-74
2023/04/28 06:28:43;;;;;;;18.35;8.00;;;;;;;;;;4927251;28;20398;-74
2023/04/28 06:31:09;;;;;;;23.90;7.60;;;;;;;;;;4937622;28;20414;-74
2023/04/28 06:33:34;;;;;;;16.13;7.97;;;;;;;;;;4941658;28;20102;-74
2023/04/28 06:36:00;;;;;;;18.40;8.02;;;;;;;;;;4937298;28;20296;-74
2023/04/28 06:38:25;;;;;;;17.00;7.53;;;;;;;;;;4940500;28;20027;-74
2023/04/28 06:40:50;;;;;;;20.38;8.05;;;;;;;;;;4936245;28;20053;-73
2023/04/28 06:43:16;;;;;;;16.43;7.80;;;;;;;;;;4924253;28;20063;-73
2023/04/28 06:45:41;;;;;;;18.47;8.07;;;;;;;;;;4940262;28;20806;-73
2023/04/28 06:48:07;;;;;;;19.45;7.72;;;;;;;;;;4936301;28;20300;-73
2023/04/28 06:50:32;;;;;;;16.10;7.35;;;;;;;;;;4938252;28;20036;-72
2023/04/28 06:52:57;;;;;;;14.13;7.55;;;;;;;;;;4934191;28;20039;-72
2023/04/28 06:55:23;;;;;;;15.98;6.07;;;;;;;;;;4934530;28;20087;-72
2023/04/28 06:57:48;;;;;;;11.95;6.32;;;;;;;;;;4926926;28;20034;-71
2023/04/28 07:00:13;;;;;;;16.23;6.03;;;;;;;;;;4936854;28;20032;-72
2023/04/28 07:02:39;;;;;;;13.82;5.82;;;;;;;;;;4938275;28;20037;-72
2023/04/28 07:05:04;;;;;;;12.33;5.73;;;;;;;;;;4937583;28;20445;-72
2023/04/28 07:07:30;;;;;;;10.88;4.68;;;;;;;;;;4939677;28;20273;-72
2023/04/28 07:09:55;;;;;;;7.13;4.55;;;;;;;;;;4940019;28;20023;-70
2023/04/28 07:12:20;;;;;;;8.30;4.53;;;;;;;;;;4933781;28;20526;-72
2023/04/28 07:14:46;;;;;;;11.02;5.00;;;;;;;;;;4938019;28;20324;-72
2023/04/28 07:17:11;;;;;;;10.73;5.13;;;;;;;;;;4935688;28;20398;-73
2023/04/28 07:19:36;;;;;;;11.57;4.18;;;;;;;;;;4933493;28;20389;-73
2023/04/28 07:22:02;;;;;;;10.60;4.70;;;;;;;;;;4939236;28;20508;-73
2023/04/28 07:24:27;;;;;;;10.27;4.73;;;;;;;;;;4934245;28;20035;-72
2023/04/28 07:26:52;;;;;;;11.00;4.70;;;;;;;;;;4934225;28;20050;-70
2023/04/28 07:29:18;;;;;;;8.32;3.88;;;;;;;;;;4933887;28;20032;-70
2023/04/28 07:31:43;;;;;;;9.30;3.80;;;;;;;;;;4936295;28;20035;-75
2023/04/28 07:34:08;;;;;;;7.87;3.60;;;;;;;;;;4926293;28;20058;-76
2023/04/28 07:36:33;;;;;;;11.10;4.17;;;;;;;;;;4936895;28;20277;-75
2023/04/28 07:38:59;;;;;;;9.15;3.78;;;;;;;;;;4920004;28;20024;-71
2023/04/28 07:41:26;;;;;;;7.18;3.78;;;;;;;;;;4938077;28;20019;-75
2023/04/28 07:43:51;;;;;;;8.95;3.30;;;;;;;;;;4929942;28;20036;-72
2023/04/28 07:46:17;;;;;;;7.47;3.00;;;;;;;;;;4935339;28;20114;-75
2023/04/28 07:48:42;;;;;;;8.93;3.53;;;;;;;;;;4926798;28;20293;-74
2023/04/28 07:51:07;;;;;;;5.73;2.60;;;;;;;;;;4922858;28;20296;-72
2023/04/28 07:53:33;;;;;;;6.90;2.77;;;;;;;;;;4935339;28;20307;-72
2023/04/28 07:55:58;;;;;;;5.43;2.78;;;;;;;;;;4940176;28;20027;-72
2023/04/28 07:58:23;;;;;;;6.53;3.13;;;;;;;;;;4942382;28;20464;-75
2023/04/28 08:00:48;;;;;;;5.53;2.50;;;;;;;;;;4941072;28;20365;-75
2023/04/28 08:03:14;;;;;;;4.13;2.20;;;;;;;;;;4938583;28;20292;-75
2023/04/28 08:05:40;;;;;;;8.07;3.10;;;;;;;;;;4938567;28;20308;-75
2023/04/28 08:08:05;;;;;;;6.18;2.70;;;;;;;;;;4939392;28;20750;-75
2023/04/28 08:10:30;;;;;;;4.65;2.67;;;;;;;;;;4925834;28;20086;-75
2023/04/28 08:12:56;;;;;;;12.35;3.22;;;;;;;;;;4940612;28;20042;-72
2023/04/28 08:15:21;;;;;;;6.68;3.00;;;;;;;;;;4927398;28;20040;-72
2023/04/28 08:17:46;;;;;;;7.03;2.78;;;;;;;;;;4939952;28;20031;-75
2023/04/28 08:20:14;;;;;;;4.60;2.50;;;;;;;;;;4940439;28;20026;-75
2023/04/28 08:22:39;;;;;;;6.90;2.47;;;;;;;;;;4939708;28;20308;-76
2023/04/28 08:25:05;;;;;;;5.68;2.35;;;;;;;;;;4938317;28;20050;-75
2023/04/28 08:27:30;;;;;;;7.38;2.90;;;;;;;;;;4939502;28;20679;-76
2023/04/28 08:29:55;;;;;;;6.57;2.45;;;;;;;;;;4938256;28;20127;-75
2023/04/28 08:32:21;;;;;;;4.97;2.60;;;;;;;;;;4940637;28;20038;-77
2023/04/28 08:34:46;;;;;;;4.63;2.27;;;;;;;;;;4942138;28;20031;-75
2023/04/28 08:37:12;;;;;;;4.60;2.40;;;;;;;;;;4938280;28;20429;-75
2023/04/28 08:39:37;;;;;;;3.90;2.25;;;;;;;;;;4938414;28;20579;-76
2023/04/28 08:42:03;;;;;;;7.22;2.63;;;;;;;;;;4940390;28;20038;-74
2023/04/28 08:44:33;;;;;;;4.43;2.17;;;;;;;;;;4940529;28;20035;-74
2023/04/28 08:46:59;;;;;;;7.13;2.00;;;;;;;;;;4940711;28;20039;-74
2023/04/28 08:49:31;;;;;;;5.25;2.50;;;;;;;;;;4937259;28;20390;-73
2023/04/28 08:51:58;;;;;;;10.48;2.83;;;;;;;;;;4938450;28;20031;-73
2023/04/28 08:54:27;;;;;;;4.55;2.38;;;;;;;;;;4937300;28;20115;-75
2023/04/28 08:56:52;;;;;;;9.60;2.50;;;;;;;;;;4941051;28;20670;-73
2023/04/28 08:59:17;;;;;;;5.43;2.33;;;;;;;;;;4943328;28;20282;-72
2023/04/28 09:01:43;;;;;;;6.10;2.45;;;;;;;;;;4940102;28;20055;-72
2023/04/28 09:04:09;;;;;;;5.00;2.20;;;;;;;;;;4929516;28;20030;-73
2023/04/28 09:06:36;;;;;;;5.40;2.30;;;;;;;;;;4940342;28;20285;-74
2023/04/28 09:09:21;;;;;;;6.95;2.13;;;;;;;;;;4938506;28;20042;-73
2023/04/28 09:11:54;;;;;;;4.57;2.30;;;;;;;;;;4939224;28;20023;-72
2023/04/28 09:14:19;;;;;;;6.25;2.40;;;;;;;;;;4939448;28;20063;-72
2023/04/28 09:16:45;;;;;;;3.97;2.53;;;;;;;;;;4942281;28;20518;-72
2023/04/28 09:19:10;;;;;;;29.15;3.40;;;;;;;;;;4938698;28;20034;-72
2023/04/28 09:21:48;;;;;;;4.37;2.60;;;;;;;;;;4942872;28;20031;-73
2023/04/28 09:24:26;;;;;;;5.13;2.60;;;;;;;;;;4941869;28;20290;-72
2023/04/28 09:26:52;;;;;;;4.28;2.47;;;;;;;;;;4938320;28;20528;-73
2023/04/28 09:29:19;;;;;;;5.20;2.43;;;;;;;;;;4940432;28;20051;-72
2023/04/28 09:31:45;;;;;;;6.53;2.35;;;;;;;;;;4927894;28;20365;-72
2023/04/28 09:34:11;;;;;;;4.57;2.70;;;;;;;;;;4940678;28;20165;-74
2023/04/28 09:36:36;;;;;;;6.97;3.25;;;;;;;;;;4936976;28;20421;-70
2023/04/28 09:39:01;;;;;;;4.82;2.15;;;;;;;;;;4938574;28;20028;-70
2023/04/28 09:41:40;;;;;;;7.25;2.30;;;;;;;;;;4941492;28;20034;-69
2023/04/28 09:44:09;;;;;;;5.35;1.95;;;;;;;;;;4939514;28;20038;-69
2023/04/28 09:46:34;;;;;;;4.75;2.85;;;;;;;;;;4924182;29;20458;-70
2023/04/28 09:48:59;;;;;;;5.97;2.70;;;;;;;;;;4937108;28;20024;-70
2023/04/28 09:51:25;;;;;;;6.53;2.70;;;;;;;;;;4937972;28;20110;-70
2023/04/28 09:53:51;;;;;;;7.75;2.80;;;;;;;;;;4938127;29;20026;-68
2023/04/28 09:56:19;;;;;;;3.78;2.40;;;;;;;;;;4937122;28;20027;-69
2023/04/28 09:58:46;;;;;;;4.95;2.47;;;;;;;;;;4939629;28;20059;-69
2023/04/28 10:01:12;;;;;;;6.07;2.40;;;;;;;;;;4940124;28;20556;-68
2023/04/28 10:03:39;;;;;;;6.47;2.60;;;;;;;;;;4938252;28;20047;-69
2023/04/28 10:06:04;;;;;;;4.47;2.90;;;;;;;;;;4924429;28;20023;-69
2023/04/28 10:08:30;;;;;;;7.28;2.80;;;;;;;;;;4940563;28;20035;-68
2023/04/28 10:10:56;;;;;;;7.93;2.72;;;;;;;;;;4940589;28;20501;-68
2023/04/28 10:13:22;;;;;;;7.57;2.85;;;;;;;;;;4942034;28;20055;-69
2023/04/28 10:15:48;;;;;;;6.00;2.30;;;;;;;;;;4942313;28;20070;-69
2023/04/28 10:18:14;;;;;;;5.57;2.53;;;;;;;;;;4939232;28;20027;-69
2023/04/28 10:20:41;;;;;;;5.00;2.30;;;;;;;;;;4925826;28;20066;-74
2023/04/28 10:23:10;;;;;;;5.78;2.65;;;;;;;;;;4939267;28;20485;-73
2023/04/28 10:25:36;;;;;;;7.13;2.97;;;;;;;;;;4960128;28;20028;-71
2023/04/28 10:28:05;;;;;;;5.78;2.50;;;;;;;;;;4956372;28;20063;-72
2023/04/28 10:30:30;;;;;;;4.65;2.80;;;;;;;;;;4942576;29;20012;-73
2023/04/28 10:33:05;;;;;;;6.40;2.70;;;;;;;;;;4942960;29;20042;-71
2023/04/28 10:35:30;;;;;;;6.38;2.70;;;;;;;;;;4957923;28;20024;-72
2023/04/28 10:38:07;;;;;;;8.00;2.60;;;;;;;;;;4957251;28;20051;-72
2023/04/28 10:40:37;;;;;;;6.63;2.75;;;;;;;;;;4942257;29;20008;-71
2023/04/28 10:43:03;;;;;;;7.97;2.67;;;;;;;;;;4943303;29;20024;-72
2023/04/28 10:45:55;;;;;;;3.42;2.45;;;;;;;;;;4922166;29;20116;-72
2023/04/28 10:48:21;;;;;;;5.35;2.17;;;;;;;;;;4925785;29;20047;-72
2023/04/28 10:51:02;;;;;;;5.20;2.50;;;;;;;;;;4936995;29;20042;-72
2023/04/28 10:53:46;;;;;;;9.35;2.80;;;;;;;;;;4924076;29;20067;-73
2023/04/28 10:56:20;;;;;;;9.57;3.28;;;;;;;;;;4937244;29;20036;-73
2023/04/28 10:59:08;;;;;;;5.53;2.60;;;;;;;;;;4935652;29;20789;-73
2023/04/28 11:01:35;;;;;;;4.32;2.05;;;;;;;;;;4915990;29;20043;-73
2023/04/28 11:04:12;;;;;;;5.70;2.38;;;;;;;;;;4921405;29;20423;-73
2023/04/28 11:06:46;;;;;;;7.93;2.40;;;;;;;;;;4922098;29;20530;-72
2023/04/28 11:09:14;;;;;;;4.38;2.30;;;;;;;;;;4919393;29;20119;-71
2023/04/28 11:11:58;;;;;;;7.00;2.50;;;;;;;;;;4935453;28;20415;-71
2023/04/28 11:14:23;;;;;;;6.50;2.90;;;;;;;;;;4933341;28;20035;-73
2023/04/28 11:16:50;;;;;;;9.00;3.08;;;;;;;;;;4936794;28;20398;-72
2023/04/28 11:19:20;;;;;;;4.63;2.30;;;;;;;;;;4938453;29;20032;-73
2023/04/28 11:21:45;;;;;;;6.88;2.00;;;;;;;;;;4919347;29;20038;-73
2023/04/28 11:24:11;;;;;;;5.90;2.58;;;;;;;;;;4926193;29;20028;-74
2023/04/28 11:26:37;;;;;;;5.95;2.17;;;;;;;;;;4931395;28;20066;-74
2023/04/28 11:29:02;;;;;;;5.25;2.55;;;;;;;;;;4940447;28;20051;-73
2023/04/28 11:31:28;;;;;;;5.65;3.03;;;;;;;15.01;nan;101042.44;4934678;29;20035;-73
2023/04/28 11:34:03;;;;;;;3.38;2.10;;;;;;;;;;4943784;28;20031;-75
2023/04/28 11:36:32;;;;;;;4.80;2.28;;;;;;;;;;4926494;29;20042;-73
2023/04/28 11:38:58;;;;;;;4.63;2.50;;;;;;;;;;4946393;28;20031;-74
2023/04/28 11:41:23;;;;;;;6.72;2.30;;;;;;;;;;4943290;28;20269;-74
2023/04/28 11:43:49;;;;;;;6.10;2.40;;;;;;;;;;4939710;28;20498;-74
2023/04/28 11:46:15;;;;;;;5.43;2.60;;;;;;;;;;4942074;28;20042;-75
2023/04/28 11:48:40;;;;;;;6.75;2.53;;;;;;;;;;4943651;28;20039;-74
2023/04/28 11:51:06;;;;;;;4.00;2.17;;;;;;;;;;4940419;28;20058;-74
2023/04/28 11:53:44;;;;;;;6.43;2.38;;;;;;;;;;4936714;29;20392;-74
2023/04/28 11:56:09;;;;;;;4.68;2.90;;;;;;;;;;4925716;28;20035;-75
2023/04/28 11:58:34;;;;;;;6.22;2.67;;;;;;;;;;4945369;28;20403;-74
2023/04/28 12:01:09;;;;;;;6.17;2.80;;;;;;;;;;4944075;28;20042;-74
2023/04/28 12:03:42;;;;;;;9.00;5.28;;;;;;;;;;4943875;28;20285;-73
2023/04/28 12:06:07;;;;;;;5.03;3.38;;;;;;;;;;4947522;28;20110;-73
2023/04/28 12:08:33;;;;;;;4.18;2.47;;;;;;;;;;4941461;28;20974;-73
2023/04/28 12:11:09;;;;;;;4.17;2.40;;;;;;;;;;4930090;28;20042;-74
2023/04/28 12:13:35;;;;;;;6.85;2.58;;;;;;;;;;4939950;28;20270;-74
2023/04/28 12:16:02;;;;;;;4.57;2.22;;;;;;;;;;4923783;28;20272;-73
2023/04/28 12:18:27;;;;;;;6.70;2.95;;;;;;;;;;4941443;28;20035;-73
2023/04/28 12:20:53;;;;;;;7.18;4.47;;;;;;;;;;4942632;28;20044;-72
2023/04/28 12:23:33;;;;;;;12.73;2.87;;;;;;;;;;4941977;28;20035;-72
2023/04/28 12:26:02;;;;;;;4.72;2.30;;;;;;;;;;4938887;28;20284;-72
2023/04/28 12:28:37;;;;;;;5.85;2.10;;;;;;;;;;4937410;28;20136;-73
2023/04/28 12:31:07;;;;;;;6.20;2.80;;;;;;;;;;4939886;28;20063;-73
2023/04/28 12:33:38;;;;;;;4.65;2.38;;;;;;;;;;4937782;28;20024;-72
2023/04/28 12:36:05;;;;;;;5.30;2.22;;;;;;;;;;4939894;28;20059;-73
2023/04/28 12:38:31;;;;;;;4.53;2.78;;;;;;;;;;4937919;28;20823;-73
2023/04/28 12:40:57;;;;;;;4.00;2.50;;;;;;;;;;4937800;28;20035;-73
2023/04/28 12:43:23;;;;;;;4.80;2.90;;;;;;;;;;4940585;28;20023;-72
2023/04/28 12:45:57;;;;;;;5.45;2.78;;;;;;;;;;4940216;28;20539;-72
2023/04/28 12:48:23;;;;;;;5.22;3.08;;;;;;;;;;4936773;28;20453;-73
2023/04/28 12:50:49;;;;;;;4.13;2.38;;;;;;;16.45;nan;100944.34;4938510;28;20031;-73
2023/04/28 12:53:14;;;;;;;4.32;2.22;;;;;;;;;;4942698;28;20026;-72
2023/04/28 12:55:39;;;;;;;4.63;2.35;;;;;;;;;;4942448;28;20027;-73
2023/04/28 12:58:05;;;;;;;4.55;2.53;;;;;;;;;;4942009;28;20032;-72
2023/04/28 13:00:30;;;;;;;7.40;2.80;;;;;;;;;;4941061;28;20023;-72
2023/04/28 13:02:55;;;;;;;5.90;2.57;;;;;;;;;;4944204;28;20711;-72
2023/04/28 13:05:21;;;;;;;5.88;2.75;;;;;;;;;;4923695;28;20278;-72
2023/04/28 13:07:48;;;;;;;6.38;3.05;;;;;;;;;;4927664;29;20103;-76
2023/04/28 13:10:13;;;;;;;10.77;6.03;;;;;;;;;;4931414;28;20027;-75
2023/04/28 13:12:38;;;;;;;5.80;3.20;;;;;;;;;;4923298;29;20035;-75
2023/04/28 13:15:04;;;;;;;8.67;3.23;;;;;;;;;;4931456;28;20371;-76
2023/04/28 13:17:29;;;;;;;11.70;5.45;;;;;;;;;;4937984;28;20286;-75
2023/04/28 13:19:55;;;;;;;6.93;3.80;;;;;;;;;;4931189;28;20031;-70
2023/04/28 13:22:23;;;;;;;5.07;2.63;;;;;;;;;;4940485;28;20028;-71
2023/04/28 13:24:48;;;;;;;5.53;2.72;;;;;;;;;;4938170;28;20038;-71
2023/04/28 13:27:13;;;;;;;6.57;2.57;;;;;;;;;;4922264;28;20027;-72
2023/04/28 13:29:39;;;;;;;3.97;2.60;;;;;;;;;;4920257;29;20301;-70
2023/04/28 13:32:05;;;;;;;3.80;2.40;;;;;;;;;;4922686;29;20028;-72
2023/04/28 13:34:30;;;;;;;7.38;2.60;;;;;;;;;;4921903;29;20036;-70
2023/04/28 13:36:56;;;;;;;4.60;2.35;;;;;;;;;;4924577;29;20078;-71
2023/04/28 13:39:21;;;;;;;6.93;2.53;;;;;;;;;;4935530;28;20032;-71
2023/04/28 13:41:48;;;;;;;5.45;2.40;;;;;;;16.86;nan;100891.59;4917950;29;20074;-72
2023/04/28 13:44:14;;;;;;;6.05;2.45;;;;;;;17.00;nan;100895.44;4920973;29;20034;-70
2023/04/28 13:46:40;;;;;;;6.13;2.85;;;;;;;16.63;nan;100855.47;4920158;29;20031;-71
2023/04/28 13:49:06;;;;;;;9.13;3.42;;;;;;;16.83;nan;100879.56;4917548;29;20028;-70
2023/04/28 13:51:31;;;;;;;5.07;2.50;;;;;;;16.63;nan;100887.38;4919760;29;20031;-71
2023/04/28 13:53:57;;;;;;;6.78;2.92;;;;;;;16.65;nan;100879.97;4920196;29;20446;-69
2023/04/28 13:56:23;;;;;;;6.10;2.28;;;;;;;16.73;nan;100877.63;4919598;29;20434;-69
2023/04/28 13:58:48;;;;;;;4.93;2.50;;;;;;;16.73;nan;100880.28;4922464;29;20501;-71
2023/04/28 14:01:14;;;;;;;3.80;2.08;;;;;;;16.88;nan;100863.69;4925751;29;20020;-72
2023/04/28 14:03:40;;;;;;;3.17;2.10;;;;;;;16.94;nan;100853.88;4935121;29;20398;-69
2023/04/28 14:06:07;;;;;;;5.85;2.17;;;;;;;17.04;nan;100848.59;4920177;29;20031;-71
2023/04/28 14:08:32;;;;;;;3.90;2.13;;;;;;;17.24;nan;100855.91;4922537;29;20118;-71
2023/04/28 14:10:58;;;;;;;6.28;2.10;;;;;;;17.26;nan;100842.34;4923771;29;20106;-71
2023/04/28 14:13:23;;;;;;;8.60;2.90;;;;;;;17.21;nan;100841.28;4919137;29;20039;-71